Time;durP1;ratioP1;P1;durP2;ratioP2;P2;SDS_P1;SDS_P2;PMS_P1;PMS_P2;Temp;Humidity;BMP_temperature;BMP_pressure;BME280_temperature;BME280_humidity;BME280_pressure;Samples;Min_cycle;Max_cycle;Signal;HPM_P1;HPM_P2
2023/01/24 00:01:15;;;;;;;20.33;13.32;;;;;;;-0.71;78.68;147153.06;5046981;28;20052;-65
2023/01/24 00:03:40;;;;;;;25.75;13.85;;;;;;;-0.63;78.53;147173.34;5074400;28;20036;-65
2023/01/24 00:06:06;;;;;;;25.60;14.52;;;;;;;-0.72;78.72;147151.75;5065515;28;20040;-67
2023/01/24 00:08:32;;;;;;;22.38;12.95;;;;;;;-0.64;78.25;147169.56;5066045;28;20072;-67
2023/01/24 00:10:59;;;;;;;25.58;14.45;;;;;;;-0.49;79.09;147207.69;5046320;28;20029;-65
2023/01/24 00:13:25;;;;;;;23.00;14.35;;;;;;;-0.59;78.62;147182.28;5076439;28;20028;-65
2023/01/24 00:15:51;;;;;;;24.88;14.40;;;;;;;-0.65;78.25;147168.28;5075040;28;20028;-66
2023/01/24 00:18:16;;;;;;;21.67;14.07;;;;;;;-0.57;79.33;147188.63;5071486;28;20032;-65
2023/01/24 00:20:42;;;;;;;22.02;13.27;;;;;;;-0.52;78.76;147200.06;5084682;28;20047;-66
2023/01/24 00:23:07;;;;;;;24.30;13.75;;;;;;;-0.49;78.51;147206.44;5047723;28;20021;-67
2023/01/24 00:25:33;;;;;;;22.33;13.10;;;;;;;-0.37;78.60;147238.19;5065088;28;20386;-66
2023/01/24 00:27:58;;;;;;;24.13;14.18;;;;;;;-0.43;78.24;147221.66;5078333;28;20028;-68
2023/01/24 00:30:24;;;;;;;22.90;13.63;;;;;;;-0.59;77.88;147183.53;5077773;28;20410;-68
2023/01/24 00:32:50;;;;;;;21.60;13.02;;;;;;;-0.61;79.15;147177.22;5066483;28;20027;-67
2023/01/24 00:35:15;;;;;;;20.35;12.38;;;;;;;-0.56;78.04;147191.13;5085328;28;20052;-67
2023/01/24 00:37:41;;;;;;;21.20;13.55;;;;;;;-0.66;78.16;147165.75;5067918;28;20033;-67
2023/01/24 00:40:08;;;;;;;19.60;13.27;;;;;;;-0.59;78.16;147183.53;5059678;28;20335;-67
2023/01/24 00:42:33;;;;;;;20.15;13.38;;;;;;;-0.50;79.17;147205.13;5077220;28;20029;-65
2023/01/24 00:44:59;;;;;;;21.35;12.45;;;;;;;-0.55;78.37;147193.69;5067776;28;20351;-65
2023/01/24 00:47:25;;;;;;;20.33;12.75;;;;;;;-0.46;78.41;147215.28;5085532;28;20362;-66
2023/01/24 00:49:50;;;;;;;20.27;13.25;;;;;;;-0.57;78.91;147187.34;5066346;28;20092;-65
2023/01/24 00:52:16;;;;;;;24.73;13.98;;;;;;;-0.55;79.00;147192.44;5079029;28;20305;-66
2023/01/24 00:54:42;;;;;;;21.15;13.23;;;;;;;-0.41;78.69;147228.03;5075999;28;20041;-66
2023/01/24 00:57:07;;;;;;;23.10;13.77;;;;;;;-0.66;78.15;147165.75;5051475;28;20031;-66
2023/01/24 00:59:33;;;;;;;21.25;11.95;;;;;;;-0.57;78.74;147188.63;5084187;28;20099;-66
2023/01/24 01:01:58;;;;;;;22.75;13.30;;;;;;;-0.50;78.69;147203.88;5065116;28;20097;-66
2023/01/24 01:04:24;;;;;;;24.30;14.18;;;;;;;-0.57;78.28;147188.63;5079588;28;20024;-66
2023/01/24 01:06:49;;;;;;;21.95;13.60;;;;;;;-0.44;79.06;147219.09;5084925;28;20035;-66
2023/01/24 01:09:15;;;;;;;19.73;13.30;;;;;;;-0.44;77.84;147220.41;5076051;28;20092;-66
2023/01/24 01:11:41;;;;;;;20.13;12.35;;;;;;;-0.41;78.08;147226.78;5065114;28;20029;-66
2023/01/24 01:14:08;;;;;;;23.08;12.50;;;;;;;-0.36;78.16;147239.44;5084033;28;20047;-67
2023/01/24 01:16:37;;;;;;;18.02;12.20;;;;;;;-0.32;78.70;147248.38;5068548;28;20029;-67
2023/01/24 01:19:03;;;;;;;21.80;12.23;;;;;;;-0.27;78.47;147262.34;5076507;28;20035;-66
2023/01/24 01:21:29;;;;;;;20.23;13.30;;;;;;;-0.29;78.33;147255.97;5077520;28;20040;-66
2023/01/24 01:23:54;;;;;;;21.92;12.80;;;;;;;-0.36;78.12;147240.75;5066197;28;20329;-68
2023/01/24 01:26:21;;;;;;;17.65;12.02;;;;;;;-0.39;77.26;147233.09;5075596;28;20048;-67
2023/01/24 01:28:47;;;;;;;20.10;12.45;;;;;;;-0.31;77.80;147252.19;5064357;28;20379;-66
2023/01/24 01:31:12;;;;;;;22.35;13.88;;;;;;;-0.40;78.05;147230.56;5065619;28;20028;-66
2023/01/24 01:33:38;;;;;;;20.05;12.60;;;;;;;-0.42;77.95;147224.22;5072338;28;20344;-66
2023/01/24 01:36:04;;;;;;;19.27;12.63;;;;;;;-0.44;78.69;147220.41;5080741;28;20096;-66
2023/01/24 01:38:31;;;;;;;19.08;12.75;;;;;;;-0.38;77.84;147234.38;5064406;28;20021;-67
2023/01/24 01:40:57;;;;;;;19.25;12.65;;;;;;;-0.36;78.28;147239.44;5076219;28;20290;-66
2023/01/24 01:43:26;;;;;;;20.30;12.43;;;;;;;-0.37;77.99;147238.19;5063010;28;20033;-66
2023/01/24 01:46:05;;;;;;;19.42;11.88;;;;;;;-0.46;78.67;147214.03;5063532;28;20032;-66
2023/01/24 01:48:31;;;;;;;17.20;11.38;;;;;;;-0.36;78.83;147239.44;5064051;28;20036;-66
2023/01/24 01:51:02;;;;;;;18.50;11.45;;;;;;;-0.49;78.65;147206.44;5049326;28;20028;-66
2023/01/24 01:53:34;;;;;;;15.32;9.48;;;;;;;-0.52;77.94;147201.31;5080335;28;20029;-67
2023/01/24 01:56:02;;;;;;;;;;;;;;;-0.29;78.59;147255.97;5063664;28;20041;-66
2023/01/24 01:58:28;;;;;;;18.15;10.50;;;;;;;-0.40;78.81;147229.28;5063512;28;19947;-64
2023/01/24 02:00:54;;;;;;;18.40;11.30;;;;;;;-0.37;78.71;147238.19;5071626;28;20025;-65
2023/01/24 02:03:49;;;;;;;13.38;8.63;;;;;;;-0.39;78.65;147233.09;5055806;28;20047;-65
2023/01/24 02:06:29;;;;;;;14.95;9.25;;;;;;;-0.37;77.67;147238.19;5073117;28;20208;-65
2023/01/24 02:08:56;;;;;;;16.60;11.25;;;;;;;-0.39;78.52;147231.81;5063399;28;20021;-66
2023/01/24 02:11:38;;;;;;;18.45;11.93;;;;;;;-0.33;78.52;147247.06;5065750;28;20024;-67
2023/01/24 02:16:50;;;;;;;21.30;11.07;;;;;;;-0.31;78.45;147252.19;5055938;28;20071;-67
2023/01/24 02:19:41;;;;;;;17.02;10.95;;;;;;;-0.39;78.55;147231.81;5044493;28;20024;-66
2023/01/24 02:22:16;;;;;;;16.58;10.20;;;;;;;-0.41;78.61;147226.78;5062885;28;20049;-65
2023/01/24 02:24:56;;;;;;;16.83;11.07;;;;;;;-0.33;78.77;147245.81;5058164;28;20032;-66
2023/01/24 02:27:21;;;;;;;16.27;9.73;;;;;;;-0.31;77.78;147250.88;5071291;28;20329;-66
2023/01/24 02:29:47;;;;;;;17.10;10.65;;;;;;;-0.27;78.45;147261.03;5062321;28;20072;-66
2023/01/24 02:32:14;;;;;;;18.25;10.82;;;;;;;-0.33;78.87;147245.81;5050727;28;20028;-66
2023/01/24 02:34:40;;;;;;;18.42;11.38;;;;;;;-0.29;78.60;147255.97;5062734;28;20055;-66
2023/01/24 02:37:12;;;;;;;15.93;10.90;;;;;;;-0.27;79.03;147262.34;5060808;28;20696;-65
2023/01/24 02:39:46;;;;;;;16.50;11.68;;;;;;;-0.31;78.58;147250.88;5075915;28;20274;-66
2023/01/24 02:42:14;;;;;;;18.25;11.48;;;;;;;-0.36;78.51;147239.44;5055418;28;20112;-66
2023/01/24 02:45:07;;;;;;;17.60;10.15;;;;;;;-0.32;78.26;147248.38;5061731;28;20044;-66
2023/01/24 02:47:38;;;;;;;15.45;10.50;;;;;;;-0.27;77.88;147261.03;5062254;28;20368;-67
2023/01/24 02:50:06;;;;;;;16.65;10.18;;;;;;;-0.26;78.15;147263.59;5062169;28;20051;-65
2023/01/24 02:55:16;;;;;;;16.02;10.30;;;;;;;-0.24;78.59;147268.72;5044259;28;20044;-65
2023/01/24 03:00:26;;;;;;;16.17;9.57;;;;;;;-0.17;78.09;147286.50;5062270;28;20093;-67
2023/01/24 03:02:52;;;;;;;14.68;9.93;;;;;;;-0.21;77.67;147277.59;5062148;28;20021;-67
2023/01/24 03:05:17;;;;;;;18.40;11.10;;;;;;;-0.16;78.34;147289.00;5060936;28;20044;-67
2023/01/24 03:07:44;;;;;;;16.15;10.18;;;;;;;-0.20;78.82;147278.84;5061108;28;20036;-66
2023/01/24 03:10:15;;;;;;;17.30;9.88;;;;;;;-0.19;77.69;147282.66;5061488;28;20098;-66
2023/01/24 03:34:45;;;;;;;17.65;10.10;;;;;;;-0.24;78.10;147269.97;5042640;28;20025;-67
2023/01/24 03:37:12;;;;;;;16.95;9.23;;;;;;;-0.27;77.80;147261.03;5074814;28;20123;-68
2023/01/24 03:39:58;;;;;;;13.77;9.07;;;;;;;-0.22;78.40;147273.78;5070395;28;20036;-68
2023/01/24 03:42:25;;;;;;;15.25;9.48;;;;;;;-0.15;78.97;147290.31;5071649;28;20024;-66
2023/01/24 03:44:51;;;;;;;15.25;9.90;;;;;;;-0.08;78.81;147308.09;5066438;28;20083;-67
2023/01/24 03:47:16;;;;;;;14.80;8.85;;;;;;;-0.09;78.09;147305.56;5044051;28;20032;-67
2023/01/24 03:52:29;;;;;;;12.05;8.68;;;;;;;-0.10;78.34;147304.31;5080134;28;20119;-67
2023/01/24 03:54:59;;;;;;;16.73;9.52;;;;;;;0.00;78.42;147328.47;5067944;28;20212;-67
2023/01/24 03:57:26;;;;;;;13.45;8.88;;;;;;;-0.02;78.05;147323.34;5070885;28;20301;-66
2023/01/24 03:59:52;;;;;;;13.82;8.98;;;;;;;0.00;78.08;147328.47;5052675;28;20078;-66
2023/01/24 04:02:18;;;;;;;26.02;15.85;;;;;;;0.03;78.29;147336.06;5066867;28;20020;-68
2023/01/24 04:07:29;;;;;;;13.90;8.75;;;;;;;-0.22;78.35;147275.03;5080244;28;20020;-67
2023/01/24 04:09:54;;;;;;;15.85;8.80;;;;;;;-0.20;78.82;147278.84;5081221;28;20040;-68
2023/01/24 04:12:20;;;;;;;12.40;8.50;;;;;;;-0.15;78.44;147291.56;5072840;28;20099;-68
2023/01/24 04:14:46;;;;;;;18.83;9.20;;;;;;;-0.11;78.18;147301.75;5065959;28;20031;-67
2023/01/24 04:17:11;;;;;;;13.50;8.77;;;;;;;-0.08;78.12;147308.09;5066922;28;20032;-68
2023/01/24 04:19:37;;;;;;;14.55;9.18;;;;;;;-0.14;78.00;147294.13;5061017;28;20060;-67
2023/01/24 04:22:03;;;;;;;15.93;9.13;;;;;;;-0.16;78.86;147287.75;5042672;28;20021;-67
2023/01/24 04:24:28;;;;;;;14.60;8.77;;;;;;;-0.23;78.20;147272.53;5071110;28;20047;-67
2023/01/24 04:26:54;;;;;;;12.45;8.57;;;;;;;-0.24;78.92;147268.72;5081390;28;20024;-67
2023/01/24 04:29:20;;;;;;;15.25;9.15;;;;;;;-0.17;78.43;147286.50;5080874;28;20027;-66
2023/01/24 04:31:46;;;;;;;12.95;8.43;;;;;;;-0.11;78.69;147300.50;5060857;28;20056;-66
2023/01/24 04:34:11;;;;;;;15.38;9.55;;;;;;;-0.14;78.67;147292.81;5061019;28;20201;-66
2023/01/24 04:36:37;;;;;;;15.00;9.48;;;;;;;-0.21;78.37;147276.34;5043330;28;20079;-66
2023/01/24 04:39:03;;;;;;;16.38;9.48;;;;;;;-0.24;79.02;147269.97;5067367;28;20170;-66
2023/01/24 04:41:28;;;;;;;13.93;8.80;;;;;;;-0.10;78.96;147304.31;5074424;28;20075;-68
2023/01/24 04:43:54;;;;;;;13.18;8.63;;;;;;;-0.09;78.88;147305.56;5052637;28;20029;-67
2023/01/24 04:46:20;;;;;;;11.88;8.43;;;;;;;-0.05;78.77;147316.97;5061459;28;20044;-67
2023/01/24 04:48:46;;;;;;;14.98;8.95;;;;;;;-0.21;78.52;147277.59;5061491;28;20029;-67
2023/01/24 04:51:11;;;;;;;14.40;8.85;;;;;;;-0.32;78.29;147248.38;5063972;28;20037;-67
2023/01/24 04:53:41;;;;;;;13.50;8.90;;;;;;;-0.30;78.49;147253.44;5067747;28;20052;-68
2023/01/24 04:56:07;;;;;;;14.93;9.60;;;;;;;-0.28;77.99;147259.78;5063100;28;20021;-67
2023/01/24 04:58:34;;;;;;;14.00;9.15;;;;;;;-0.29;78.55;147255.97;5064567;28;20328;-67
2023/01/24 05:01:00;;;;;;;13.15;8.82;;;;;;;-0.36;79.16;147240.75;5078518;28;20040;-68
2023/01/24 05:03:26;;;;;;;15.95;8.73;;;;;;;-0.31;79.05;147252.19;5057481;28;20056;-66
2023/01/24 05:05:53;;;;;;;12.35;8.07;;;;;;;-0.25;78.90;147267.41;5069153;28;20291;-68
2023/01/24 05:08:19;;;;;;;13.40;8.45;;;;;;;-0.27;78.36;147262.34;5080801;28;20102;-69
2023/01/24 05:10:45;;;;;;;14.18;9.32;;;;;;;-0.30;78.16;147253.44;5064579;28;20017;-68
2023/01/24 05:13:10;;;;;;;12.82;8.38;;;;;;;-0.35;79.06;147242.00;5063954;28;20052;-67
2023/01/24 05:15:36;;;;;;;15.60;9.00;;;;;;;-0.30;78.46;147253.44;5075155;28;20097;-68
2023/01/24 05:18:02;;;;;;;13.25;8.27;;;;;;;-0.33;78.73;147247.06;5077749;28;20048;-68
2023/01/24 05:20:28;;;;;;;17.88;8.95;;;;;;;-0.35;79.07;147243.25;5063751;28;20084;-68
2023/01/24 05:22:58;;;;;;;14.70;8.85;;;;;;;-0.37;78.69;147238.19;5063571;28;20036;-68
2023/01/24 05:25:24;;;;;;;12.40;7.95;;;;;;;-0.29;78.69;147257.25;5063411;28;20028;-67
2023/01/24 05:27:50;;;;;;;12.63;9.27;;;;;;;-0.41;79.15;147228.03;5051198;28;20032;-68
2023/01/24 05:30:16;;;;;;;12.85;8.45;;;;;;;-0.54;79.31;147195.00;5038779;28;20056;-67
2023/01/24 05:32:42;;;;;;;14.98;8.48;;;;;;;-0.46;79.54;147214.03;5063959;28;20025;-68
2023/01/24 05:35:08;;;;;;;14.65;8.38;;;;;;;-0.36;78.87;147240.75;5063767;28;20313;-68
2023/01/24 05:37:38;;;;;;;13.20;8.65;;;;;;;-0.50;79.88;147205.13;5063651;28;20090;-67
2023/01/24 05:40:04;;;;;;;13.70;8.40;;;;;;;-0.38;79.30;147235.63;5077870;28;20033;-68
2023/01/24 05:42:30;;;;;;;16.08;9.13;;;;;;;-0.38;78.64;147235.63;5056809;28;20036;-68
2023/01/24 05:44:56;;;;;;;15.32;9.07;;;;;;;-0.24;79.57;147269.97;5063019;28;20092;-67
2023/01/24 05:47:22;;;;;;;12.52;8.38;;;;;;;-0.26;78.28;147264.84;5063233;28;20032;-66
2023/01/24 05:49:49;;;;;;;16.25;9.45;;;;;;;-0.37;78.60;147236.88;5063607;28;20408;-68
2023/01/24 05:52:21;;;;;;;12.55;8.70;;;;;;;-0.25;78.58;147267.41;5077437;28;20032;-67
2023/01/24 05:54:47;;;;;;;14.98;7.82;;;;;;;-0.27;79.67;147261.03;5063128;28;20028;-67
2023/01/24 05:57:14;;;;;;;12.38;7.95;;;;;;;-0.24;78.80;147268.72;5063113;28;20028;-67
2023/01/24 05:59:39;;;;;;;15.50;9.00;;;;;;;-0.33;78.83;147247.06;5065361;28;20063;-68
2023/01/24 06:02:05;;;;;;;13.73;8.27;;;;;;;-0.29;79.35;147257.25;5083195;28;20025;-66
2023/01/24 06:04:30;;;;;;;12.25;7.95;;;;;;;-0.33;79.30;147245.81;5064638;28;20209;-68
2023/01/24 06:06:56;;;;;;;16.05;8.85;;;;;;;-0.46;79.49;147214.03;5069993;28;20314;-67
2023/01/24 06:09:22;;;;;;;13.32;8.50;;;;;;;-0.45;79.52;147216.59;5071276;28;20090;-68
2023/01/24 06:11:47;;;;;;;12.95;8.73;;;;;;;-0.44;79.68;147219.09;5079602;28;20359;-66
2023/01/24 06:14:13;;;;;;;11.38;8.45;;;;;;;-0.40;79.55;147230.56;5045273;28;20028;-68
2023/01/24 06:16:39;;;;;;;15.48;8.50;;;;;;;-0.32;79.49;147248.38;5063004;28;20029;-67
2023/01/24 06:19:05;;;;;;;11.57;8.05;;;;;;;-0.31;79.62;147252.19;5077171;28;20032;-67
2023/01/24 06:21:33;;;;;;;15.45;8.30;;;;;;;-0.30;78.91;147254.72;5073460;28;20020;-67
2023/01/24 06:23:59;;;;;;;11.77;8.07;;;;;;;-0.30;79.45;147253.44;5066739;28;20249;-67
2023/01/24 06:26:26;;;;;;;12.43;8.90;;;;;;;-0.41;79.37;147228.03;5073803;28;20037;-68
2023/01/24 06:28:52;;;;;;;12.20;8.63;;;;;;;-0.25;79.27;147266.16;5063569;28;20028;-68
2023/01/24 06:31:39;;;;;;;13.85;8.88;;;;;;;-0.24;79.21;147269.97;5049137;28;20019;-67
2023/01/24 06:34:14;;;;;;;15.02;8.63;;;;;;;-0.24;78.80;147268.72;5059043;28;20032;-66
2023/01/24 06:36:53;;;;;;;16.67;8.30;;;;;;;-0.57;79.68;147187.34;5059700;28;20029;-67
2023/01/24 06:39:21;;;;;;;11.38;7.55;;;;;;;-0.20;79.56;147278.84;5057509;28;20040;-67
2023/01/24 06:41:48;;;;;;;13.88;8.60;;;;;;;-0.12;78.89;147297.94;5063060;28;20317;-67
2023/01/24 06:44:13;;;;;;;13.73;8.70;;;;;;;0.02;79.17;147333.53;5062791;28;20041;-68
2023/01/24 06:46:39;;;;;;;15.32;8.65;;;;;;;0.05;78.20;147339.88;5062140;28;20340;-67
2023/01/24 06:49:05;;;;;;;12.40;8.45;;;;;;;0.08;78.21;147347.50;5062336;28;20044;-68
2023/01/24 06:51:31;;;;;;;14.18;8.27;;;;;;;0.01;77.63;147329.72;5062369;28;20229;-68
2023/01/24 06:53:57;;;;;;;12.68;8.80;;;;;;;0.16;78.37;147369.13;5062039;28;20055;-68
2023/01/24 06:56:23;;;;;;;12.90;8.60;;;;;;;0.35;78.22;147414.91;5062911;28;20039;-68
2023/01/24 06:58:48;;;;;;;14.18;8.23;;;;;;;0.40;77.49;147427.63;5064858;28;20033;-69
2023/01/24 07:01:14;;;;;;;11.82;8.13;;;;;;;0.46;77.45;147441.63;5067816;28;20032;-68
2023/01/24 07:03:39;;;;;;;12.43;7.97;;;;;;;0.52;76.83;147458.13;5062531;28;20106;-69
2023/01/24 07:06:05;;;;;;;11.85;8.38;;;;;;;0.30;76.95;147402.16;5058027;28;20029;-70
2023/01/24 07:08:30;;;;;;;15.00;8.35;;;;;;;0.47;76.54;147445.44;5080503;28;20051;-70
2023/01/24 07:10:59;;;;;;;13.13;8.23;;;;;;;0.49;77.11;147450.50;5082309;28;20099;-70
2023/01/24 07:13:25;;;;;;;13.23;8.20;;;;;;;0.54;76.24;147460.69;5065164;28;20324;-68
2023/01/24 07:15:50;;;;;;;11.52;7.70;;;;;;;0.51;76.80;147454.31;5073989;28;20036;-68
2023/01/24 07:18:18;;;;;;;14.80;8.48;;;;;;;0.62;76.23;147482.31;5067545;28;20029;-69
2023/01/24 07:20:44;;;;;;;12.40;8.43;;;;;;;0.68;76.62;147497.59;5062111;28;20113;-68
2023/01/24 07:23:29;;;;;;;16.08;8.65;;;;;;;0.60;76.33;147475.94;5062126;28;20027;-70
2023/01/24 07:25:55;;;;;;;15.80;8.70;;;;;;;0.69;76.36;147500.09;5047123;28;20033;-70
2023/01/24 07:28:21;;;;;;;14.85;8.15;;;;;;;0.65;76.13;147488.69;5044330;28;20029;-69
2023/01/24 07:30:48;;;;;;;15.43;8.85;;;;;;;0.67;75.97;147493.75;5064898;28;20078;-68
2023/01/24 07:33:14;;;;;;;12.73;8.45;;;;;;;0.65;76.04;147488.69;5062117;28;20032;-67
2023/01/24 07:35:41;;;;;;;11.77;8.48;;;;;;;0.69;76.12;147500.09;5044842;28;20038;-68
2023/01/24 07:38:06;;;;;;;14.15;8.07;;;;;;;0.69;76.03;147498.84;5082082;28;20028;-68
2023/01/24 07:40:32;;;;;;;15.50;8.60;;;;;;;0.80;76.17;147525.59;5064350;28;20120;-69
2023/01/24 07:43:01;;;;;;;11.82;8.05;;;;;;;0.85;76.12;147539.53;5074130;28;20083;-69
2023/01/24 07:45:28;;;;;;;16.88;7.57;;;;;;;0.89;76.11;147547.22;5061655;28;20059;-69
2023/01/24 07:47:55;;;;;;;13.52;8.75;;;;;;;0.78;75.45;147520.47;5060890;28;20041;-69
2023/01/24 07:50:20;;;;;;;16.38;8.70;;;;;;;0.74;75.99;147511.59;5061824;28;20041;-70
2023/01/24 07:52:52;;;;;;;18.45;9.50;;;;;;;0.72;76.44;147505.22;5081139;28;20079;-68
2023/01/24 07:55:19;;;;;;;13.90;8.75;;;;;;;0.72;76.20;147506.47;5066638;28;20040;-68
2023/01/24 07:57:45;;;;;;;13.80;7.85;;;;;;;0.75;76.38;147514.09;5061445;28;20030;-69
2023/01/24 08:00:11;;;;;;;19.38;9.48;;;;;;;0.60;76.26;147477.25;5067199;28;20089;-69
2023/01/24 08:02:36;;;;;;;14.18;8.88;;;;;;;0.60;76.65;147475.94;5062503;28;20346;-70
2023/01/24 08:05:02;;;;;;;15.52;8.80;;;;;;;0.73;76.32;147509.03;5044768;28;20029;-68
2023/01/24 08:07:29;;;;;;;15.85;8.82;;;;;;;0.66;76.34;147492.50;5061804;28;20025;-70
2023/01/24 08:09:54;;;;;;;15.57;8.52;;;;;;;0.72;76.95;147506.47;5071428;28;20190;-69
2023/01/24 08:12:20;;;;;;;16.98;9.30;;;;;;;0.67;75.93;147495.03;5061653;28;20329;-67
2023/01/24 08:14:46;;;;;;;18.55;9.27;;;;;;;0.77;76.97;147519.22;5061162;28;20371;-68
2023/01/24 08:17:12;;;;;;;14.70;9.63;;;;;;;0.66;76.06;147492.50;5061238;28;20064;-69
2023/01/24 08:19:39;;;;;;;14.50;9.20;;;;;;;0.68;75.88;147496.28;5079338;28;20091;-70
2023/01/24 08:22:05;;;;;;;18.15;9.35;;;;;;;0.61;75.92;147478.50;5081548;28;20047;-71
2023/01/24 08:24:31;;;;;;;17.42;8.68;;;;;;;0.65;75.99;147489.94;5084432;28;20017;-69
2023/01/24 08:26:59;;;;;;;12.20;8.68;;;;;;;0.69;75.86;147500.09;5081734;28;20056;-70
2023/01/24 08:29:24;;;;;;;13.63;9.40;;;;;;;0.83;76.34;147534.47;5065385;28;20033;-70
2023/01/24 08:31:50;;;;;;;13.75;9.75;;;;;;;0.51;76.09;147455.63;5065199;28;20028;-72
2023/01/24 08:34:16;;;;;;;14.68;9.40;;;;;;;0.62;76.00;147481.06;5065410;28;20115;-71
2023/01/24 08:36:41;;;;;;;12.98;8.00;;;;;;;0.69;75.39;147500.09;5065244;28;20032;-68
2023/01/24 08:39:07;;;;;;;16.73;9.43;;;;;;;0.79;76.63;147523.03;5030673;28;20120;-68
2023/01/24 08:41:32;;;;;;;16.83;9.43;;;;;;;0.58;76.11;147472.13;5065029;28;20021;-69
2023/01/24 08:43:58;;;;;;;16.77;9.88;;;;;;;0.74;75.94;147511.59;5076432;28;20037;-69
2023/01/24 08:46:23;;;;;;;15.15;9.73;;;;;;;0.71;76.01;147503.91;5065310;28;20041;-68
2023/01/24 08:48:49;;;;;;;15.45;10.02;;;;;;;0.61;75.58;147479.75;5065198;28;20041;-70
2023/01/24 08:51:15;;;;;;;17.65;10.43;;;;;;;0.48;76.46;147447.94;5050473;28;20051;-70
2023/01/24 08:53:40;;;;;;;15.70;9.38;;;;;;;0.65;76.19;147488.69;5083816;28;20048;-70
2023/01/24 08:56:06;;;;;;;15.75;10.25;;;;;;;0.69;76.46;147500.09;5065136;28;20214;-69
2023/01/24 08:58:33;;;;;;;16.38;9.98;;;;;;;0.72;75.45;147506.47;5081316;28;20020;-70
2023/01/24 09:01:09;;;;;;;16.83;9.48;;;;;;;0.72;75.80;147506.47;5055335;28;20037;-69
2023/01/24 09:03:35;;;;;;;15.15;9.68;;;;;;;0.60;75.59;147475.94;5059046;28;20036;-68
2023/01/24 09:06:01;;;;;;;17.45;9.38;;;;;;;0.64;75.25;147487.41;5068818;28;20020;-69
2023/01/24 09:08:27;;;;;;;15.63;8.98;;;;;;;0.63;75.56;147483.59;5083038;28;20027;-69
2023/01/24 09:10:52;;;;;;;16.00;9.50;;;;;;;0.78;75.94;147520.47;5068175;28;20033;-68
2023/01/24 09:13:18;;;;;;;18.38;9.65;;;;;;;0.97;75.48;147568.84;5078971;28;20021;-69
2023/01/24 09:15:44;;;;;;;21.02;9.77;;;;;;;1.00;75.23;147575.22;5074879;28;20040;-69
2023/01/24 09:18:10;;;;;;;13.48;8.55;;;;;;;1.08;75.02;147595.53;5069833;28;20090;-69
2023/01/24 09:20:35;;;;;;;12.77;8.75;;;;;;;1.00;74.86;147575.22;5084741;28;20028;-69
2023/01/24 09:23:13;;;;;;;14.38;8.10;;;;;;;0.75;73.87;147512.84;5053435;28;20088;-70
2023/01/24 09:25:39;;;;;;;14.35;8.57;;;;;;;0.83;74.36;147534.47;5061370;28;20037;-68
2023/01/24 09:28:05;;;;;;;13.55;8.57;;;;;;;0.98;75.06;147571.41;5076843;28;20369;-69
2023/01/24 09:30:30;;;;;;;13.10;8.40;;;;;;;1.01;74.93;147577.72;5076543;28;20033;-69
2023/01/24 09:32:56;;;;;;;14.48;8.77;;;;;;;0.88;74.47;147544.66;5063971;28;20028;-68
2023/01/24 09:35:22;;;;;;;16.60;8.90;;;;;;;0.92;74.50;147554.84;5063967;28;20178;-69
2023/01/24 09:37:47;;;;;;;14.20;8.32;;;;;;;0.94;74.64;147561.22;5082566;28;20024;-70
2023/01/24 09:40:44;;;;;;;13.38;8.27;;;;;;;0.94;74.89;147561.22;5070561;28;20035;-68
2023/01/24 09:43:42;;;;;;;11.43;7.90;;;;;;;1.02;74.12;147580.28;5044703;28;20045;-69
2023/01/24 09:46:23;;;;;;;13.82;8.18;;;;;;;0.94;74.47;147559.91;5024569;28;20072;-72
2023/01/24 09:48:57;;;;;;;16.80;8.53;;;;;;;0.96;74.19;147565.03;5054848;28;20040;-71
2023/01/24 09:51:28;;;;;;;17.10;8.25;;;;;;;1.02;74.48;147580.28;5058069;28;20248;-70
2023/01/24 09:53:57;;;;;;;14.20;8.20;;;;;;;0.94;74.01;147561.22;5082181;28;20028;-70
2023/01/24 09:56:36;;;;;;;11.95;7.43;;;;;;;0.98;73.49;147571.41;5065004;28;20185;-70
2023/01/24 09:59:32;;;;;;;13.70;8.13;;;;;;;1.00;73.47;147576.47;5058763;28;20301;-69
2023/01/24 10:01:58;;;;;;;11.45;8.38;;;;;;;0.89;73.39;147547.22;5065171;28;20044;-69
2023/01/24 10:04:34;;;;;;;13.95;8.13;;;;;;;0.84;74.19;147535.72;5079446;28;20244;-70
2023/01/24 10:07:08;;;;;;;13.02;8.88;;;;;;;1.12;74.60;147605.72;5073270;28;20051;-70
2023/01/24 10:10:10;;;;;;;14.88;7.60;;;;;;;1.09;73.84;147598.09;5072351;28;20040;-69
2023/01/24 10:12:48;;;;;;;12.20;7.78;;;;;;;1.18;73.63;147619.72;5076077;28;20084;-71
2023/01/24 10:15:28;;;;;;;13.93;7.63;;;;;;;1.17;73.89;147618.47;5068976;28;20087;-70
2023/01/24 10:18:10;;;;;;;11.65;7.60;;;;;;;1.17;73.42;147617.22;5064093;28;20166;-70
2023/01/24 10:21:10;;;;;;;15.73;8.20;;;;;;;1.23;73.91;147632.47;5064324;28;20599;-71
2023/01/24 10:23:52;;;;;;;14.80;8.18;;;;;;;1.15;73.40;147613.34;5044684;28;20044;-70
2023/01/24 10:26:18;;;;;;;;;;;;;;;1.11;73.57;147603.19;5058744;28;20029;-70
2023/01/24 10:28:50;;;;;;;11.60;7.32;;;;;;;1.16;73.26;147615.91;5064744;28;19916;-72
2023/01/24 10:31:34;;;;;;;12.45;8.02;;;;;;;1.18;72.92;147621.03;5065374;28;20313;-72
2023/01/24 10:34:15;;;;;;;12.55;7.22;;;;;;;1.33;73.19;147656.66;5069194;28;20036;-71
2023/01/24 10:36:58;;;;;;;9.60;6.85;;;;;;;1.16;72.82;147615.91;5075281;28;20174;-70
2023/01/24 10:39:25;;;;;;;12.98;7.30;;;;;;;1.30;72.28;147649.03;5065810;28;20056;-71
2023/01/24 10:41:51;;;;;;;14.00;7.20;;;;;;;1.29;72.54;147646.47;5064308;28;20261;-69
2023/01/24 10:44:19;;;;;;;12.90;8.73;;;;;;;1.30;72.41;147649.03;5054773;28;20033;-71
2023/01/24 10:46:59;;;;;;;12.55;7.93;;;;;;;1.22;73.23;147629.91;5044855;28;20051;-69
2023/01/24 10:49:31;;;;;;;11.30;7.80;;;;;;;1.15;72.68;147613.34;5078288;28;20283;-70
2023/01/24 10:52:14;;;;;;;9.48;6.65;;;;;;;1.05;72.47;147587.91;5072996;28;20312;-69
2023/01/24 10:54:55;;;;;;;14.00;7.43;;;;;;;1.20;73.01;147624.84;5063870;28;20088;-68
2023/01/24 10:57:37;;;;;;;12.17;7.50;;;;;;;0.83;72.72;147533.22;5063421;28;20044;-69
2023/01/24 11:00:30;;;;;;;11.32;7.65;;;;;;;1.11;73.39;147601.91;5048633;28;20104;-69
2023/01/24 11:02:58;;;;;;;10.95;7.25;;;;;;;1.16;73.00;147615.91;5077283;28;20301;-70
2023/01/24 11:05:34;;;;;;;11.07;6.85;;;;;;;1.30;72.58;147649.03;5063851;28;20237;-70
2023/01/24 11:08:01;;;;;;;8.93;6.53;;;;;;;1.23;72.91;147631.16;5063309;28;20217;-70
2023/01/24 11:10:34;;;;;;;9.27;7.38;;;;;;;1.28;71.90;147643.91;5063704;28;20092;-70
2023/01/24 11:13:01;;;;;;;10.88;7.15;;;;;;;1.27;72.77;147642.66;5062982;28;20236;-70
2023/01/24 11:15:30;;;;;;;10.70;7.47;;;;;;;1.27;72.51;147641.34;5069349;28;20316;-69
2023/01/24 11:18:10;;;;;;;9.85;7.60;;;;;;;1.29;72.66;147646.47;5081132;28;20051;-71
2023/01/24 11:20:36;;;;;;;11.27;7.35;;;;;;;1.13;73.14;147607.00;5063381;28;20021;-71
2023/01/24 11:23:11;;;;;;;12.38;7.78;;;;;;;0.99;72.66;147573.91;5082889;28;20020;-70
2023/01/24 11:25:53;;;;;;;10.05;7.10;;;;;;;1.11;73.35;147603.19;5066872;28;20087;-70
2023/01/24 11:28:26;;;;;;;;;;;;;;;1.14;73.15;147610.84;5077225;28;20032;-69
2023/01/24 11:30:52;;;;;;;10.02;7.45;;;;;;;1.24;72.66;147635.03;5073698;28;19905;-69
2023/01/24 11:33:55;;;;;;;10.90;7.30;;;;;;;1.17;72.36;147618.47;5063415;28;20321;-71
2023/01/24 11:36:24;;;;;;;11.30;7.60;;;;;;;1.12;72.86;147605.72;5035424;28;20052;-72
2023/01/24 11:38:53;;;;;;;11.20;7.93;;;;;;;1.14;72.81;147610.84;5045122;28;20033;-67
2023/01/24 11:41:39;;;;;;;10.15;7.57;;;;;;;1.09;73.36;147596.84;5083371;28;20339;-69
2023/01/24 11:44:34;;;;;;;10.43;6.95;;;;;;;1.25;73.07;147637.53;5045787;28;20029;-68
2023/01/24 11:47:19;;;;;;;10.57;7.50;;;;;;;1.21;72.83;147627.34;5043225;28;20039;-70
2023/01/24 11:50:02;;;;;;;10.27;7.38;;;;;;;1.34;72.37;147659.16;5042701;28;20037;-69
2023/01/24 11:52:52;;;;;;;11.07;7.00;;;;;;;1.40;72.55;147673.16;5042217;28;20021;-70
2023/01/24 11:55:33;;;;;;;12.75;6.63;;;;;;;1.41;72.46;147675.72;5045215;28;20334;-72
2023/01/24 11:58:17;;;;;;;10.95;7.43;;;;;;;1.30;72.07;147649.03;5043056;28;20056;-70
2023/01/24 12:00:58;;;;;;;8.82;6.93;;;;;;;1.18;71.86;147619.72;5043306;28;20040;-70
2023/01/24 12:03:42;;;;;;;12.15;7.38;;;;;;;1.15;72.07;147613.34;5049357;28;20029;-69
2023/01/24 12:06:20;;;;;;;7.28;6.32;;;;;;;1.06;72.25;147590.47;5048767;28;20029;-71